sensor_id;sensor_type;location;lat;lon;timestamp;temperature;humidity
17859;DHT22;35426;30.698;104.050;2022-12-01T00:00:32;5.90;99.90
17859;DHT22;35426;30.698;104.050;2022-12-01T00:03:09;6.00;99.90
17859;DHT22;35426;30.698;104.050;2022-12-01T00:05:43;6.00;99.90
17859;DHT22;35426;30.698;104.050;2022-12-01T00:08:17;6.10;99.90
17859;DHT22;35426;30.698;104.050;2022-12-01T00:10:52;6.00;99.90
17859;DHT22;35426;30.698;104.050;2022-12-01T00:13:24;6.20;99.90
17859;DHT22;35426;30.698;104.050;2022-12-01T00:16:08;6.10;99.90
17859;DHT22;35426;30.698;104.050;2022-12-01T00:18:47;6.20;99.90
17859;DHT22;35426;30.698;104.050;2022-12-01T00:21:22;6.20;99.90
17859;DHT22;35426;30.698;104.050;2022-12-01T00:23:57;6.10;99.90
17859;DHT22;35426;30.698;104.050;2022-12-01T00:26:31;6.10;99.90
17859;DHT22;35426;30.698;104.050;2022-12-01T00:29:05;6.30;99.90
17859;DHT22;35426;30.698;104.050;2022-12-01T00:31:39;6.20;99.90
17859;DHT22;35426;30.698;104.050;2022-12-01T00:34:22;6.10;99.90
17859;DHT22;35426;30.698;104.050;2022-12-01T00:36:56;6.00;99.90
17859;DHT22;35426;30.698;104.050;2022-12-01T00:39:30;6.00;99.90
17859;DHT22;35426;30.698;104.050;2022-12-01T00:42:04;5.90;99.90
17859;DHT22;35426;30.698;104.050;2022-12-01T00:44:42;6.10;99.90
17859;DHT22;35426;30.698;104.050;2022-12-01T00:47:16;6.10;99.90
17859;DHT22;35426;30.698;104.050;2022-12-01T00:49:52;6.20;99.90
17859;DHT22;35426;30.698;104.050;2022-12-01T00:52:26;6.10;99.90
17859;DHT22;35426;30.698;104.050;2022-12-01T00:55:00;6.30;99.90
17859;DHT22;35426;30.698;104.050;2022-12-01T00:57:34;6.40;99.90
17859;DHT22;35426;30.698;104.050;2022-12-01T01:00:09;6.30;99.90
17859;DHT22;35426;30.698;104.050;2022-12-01T01:02:43;6.10;99.90
17859;DHT22;35426;30.698;104.050;2022-12-01T01:05:22;6.10;99.90
17859;DHT22;35426;30.698;104.050;2022-12-01T01:07:56;6.30;99.90
17859;DHT22;35426;30.698;104.050;2022-12-01T01:10:32;6.20;99.90
17859;DHT22;35426;30.698;104.050;2022-12-01T01:13:06;6.30;99.90
17859;DHT22;35426;30.698;104.050;2022-12-01T01:15:41;6.20;99.90
17859;DHT22;35426;30.698;104.050;2022-12-01T01:18:15;6.60;99.90
17859;DHT22;35426;30.698;104.050;2022-12-01T01:20:58;6.50;99.90
17859;DHT22;35426;30.698;104.050;2022-12-01T01:23:33;6.30;99.90
17859;DHT22;35426;30.698;104.050;2022-12-01T01:26:10;6.40;99.90
17859;DHT22;35426;30.698;104.050;2022-12-01T01:28:47;6.40;99.90
17859;DHT22;35426;30.698;104.050;2022-12-01T01:31:22;6.20;99.90
17859;DHT22;35426;30.698;104.050;2022-12-01T01:33:56;6.30;99.90
17859;DHT22;35426;30.698;104.050;2022-12-01T01:36:32;6.20;99.90
17859;DHT22;35426;30.698;104.050;2022-12-01T01:39:06;6.60;99.90
17859;DHT22;35426;30.698;104.050;2022-12-01T01:41:40;6.50;99.90
17859;DHT22;35426;30.698;104.050;2022-12-01T01:44:47;6.30;99.90
17859;DHT22;35426;30.698;104.050;2022-12-01T01:47:25;6.60;99.90
17859;DHT22;35426;30.698;104.050;2022-12-01T01:50:02;6.60;99.90
17859;DHT22;35426;30.698;104.050;2022-12-01T01:52:44;6.40;99.90
17859;DHT22;35426;30.698;104.050;2022-12-01T01:55:19;6.60;99.90
17859;DHT22;35426;30.698;104.050;2022-12-01T01:57:54;6.70;99.90
17859;DHT22;35426;30.698;104.050;2022-12-01T02:00:28;6.80;99.90
17859;DHT22;35426;30.698;104.050;2022-12-01T02:03:04;6.90;99.90
17859;DHT22;35426;30.698;104.050;2022-12-01T02:05:39;6.90;99.90
17859;DHT22;35426;30.698;104.050;2022-12-01T02:08:18;6.90;99.90
17859;DHT22;35426;30.698;104.050;2022-12-01T02:11:21;6.70;99.90
17859;DHT22;35426;30.698;104.050;2022-12-01T02:14:06;6.70;99.90
17859;DHT22;35426;30.698;104.050;2022-12-01T02:16:49;6.70;99.90
17859;DHT22;35426;30.698;104.050;2022-12-01T02:19:45;7.00;99.90
17859;DHT22;35426;30.698;104.050;2022-12-01T02:22:34;7.00;99.90
17859;DHT22;35426;30.698;104.050;2022-12-01T02:25:23;7.10;99.90
17859;DHT22;35426;30.698;104.050;2022-12-01T02:31:11;7.00;99.90
17859;DHT22;35426;30.698;104.050;2022-12-01T02:33:52;7.00;99.90
17859;DHT22;35426;30.698;104.050;2022-12-01T02:36:33;7.10;99.90
17859;DHT22;35426;30.698;104.050;2022-12-01T02:39:16;7.10;99.90
17859;DHT22;35426;30.698;104.050;2022-12-01T02:41:56;7.20;99.90
17859;DHT22;35426;30.698;104.050;2022-12-01T02:44:34;7.00;99.90
17859;DHT22;35426;30.698;104.050;2022-12-01T02:47:15;6.70;99.90
17859;DHT22;35426;30.698;104.050;2022-12-01T02:50:07;6.70;99.90
17859;DHT22;35426;30.698;104.050;2022-12-01T02:52:44;6.80;99.90
17859;DHT22;35426;30.698;104.050;2022-12-01T02:55:18;7.00;99.90
17859;DHT22;35426;30.698;104.050;2022-12-01T02:57:53;7.20;99.90
17859;DHT22;35426;30.698;104.050;2022-12-01T03:00:30;7.20;99.90
17859;DHT22;35426;30.698;104.050;2022-12-01T03:03:25;7.20;99.90
17859;DHT22;35426;30.698;104.050;2022-12-01T03:06:09;7.40;99.90
17859;DHT22;35426;30.698;104.050;2022-12-01T03:08:51;7.40;99.90
17859;DHT22;35426;30.698;104.050;2022-12-01T03:11:37;7.40;99.90
17859;DHT22;35426;30.698;104.050;2022-12-01T03:14:21;7.40;99.90
17859;DHT22;35426;30.698;104.050;2022-12-01T03:17:00;7.30;99.90
17859;DHT22;35426;30.698;104.050;2022-12-01T03:19:40;7.40;99.90
17859;DHT22;35426;30.698;104.050;2022-12-01T03:22:22;7.40;99.90
17859;DHT22;35426;30.698;104.050;2022-12-01T03:24:58;7.60;99.90
17859;DHT22;35426;30.698;104.050;2022-12-01T03:27:37;7.80;99.90
17859;DHT22;35426;30.698;104.050;2022-12-01T03:30:35;7.70;99.90
17859;DHT22;35426;30.698;104.050;2022-12-01T03:33:15;7.40;99.90
17859;DHT22;35426;30.698;104.050;2022-12-01T03:35:55;7.30;99.90
17859;DHT22;35426;30.698;104.050;2022-12-01T03:38:30;7.40;99.90
17859;DHT22;35426;30.698;104.050;2022-12-01T03:41:09;7.70;99.90
17859;DHT22;35426;30.698;104.050;2022-12-01T03:43:50;8.00;99.90
17859;DHT22;35426;30.698;104.050;2022-12-01T03:46:34;7.50;99.90
17859;DHT22;35426;30.698;104.050;2022-12-01T03:49:40;7.70;99.90
17859;DHT22;35426;30.698;104.050;2022-12-01T03:53:08;7.60;99.90
17859;DHT22;35426;30.698;104.050;2022-12-01T03:55:54;7.20;99.90
17859;DHT22;35426;30.698;104.050;2022-12-01T03:58:33;7.20;99.90
17859;DHT22;35426;30.698;104.050;2022-12-01T04:01:09;7.60;99.90
17859;DHT22;35426;30.698;104.050;2022-12-01T04:03:47;7.40;99.90
17859;DHT22;35426;30.698;104.050;2022-12-01T04:06:23;7.30;99.90
17859;DHT22;35426;30.698;104.050;2022-12-01T04:09:00;7.20;99.90
17859;DHT22;35426;30.698;104.050;2022-12-01T04:11:34;7.30;99.90
17859;DHT22;35426;30.698;104.050;2022-12-01T04:14:26;7.30;99.90
17859;DHT22;35426;30.698;104.050;2022-12-01T04:17:02;7.30;99.90
17859;DHT22;35426;30.698;104.050;2022-12-01T04:19:38;7.50;99.90
17859;DHT22;35426;30.698;104.050;2022-12-01T04:22:14;7.30;99.90
17859;DHT22;35426;30.698;104.050;2022-12-01T04:24:51;7.30;99.90
17859;DHT22;35426;30.698;104.050;2022-12-01T04:27:26;7.60;99.90
17859;DHT22;35426;30.698;104.050;2022-12-01T04:30:01;7.50;99.90
17859;DHT22;35426;30.698;104.050;2022-12-01T04:32:38;7.60;99.90
17859;DHT22;35426;30.698;104.050;2022-12-01T04:35:14;7.60;99.90
17859;DHT22;35426;30.698;104.050;2022-12-01T04:37:51;7.30;99.90
17859;DHT22;35426;30.698;104.050;2022-12-01T04:40:28;7.30;99.90
17859;DHT22;35426;30.698;104.050;2022-12-01T04:43:02;7.30;99.90
17859;DHT22;35426;30.698;104.050;2022-12-01T04:45:38;6.90;99.90
17859;DHT22;35426;30.698;104.050;2022-12-01T04:48:13;6.90;99.90
17859;DHT22;35426;30.698;104.050;2022-12-01T04:50:49;7.20;99.90
17859;DHT22;35426;30.698;104.050;2022-12-01T04:53:26;7.50;99.90
17859;DHT22;35426;30.698;104.050;2022-12-01T04:56:04;7.80;99.90
17859;DHT22;35426;30.698;104.050;2022-12-01T04:58:38;7.60;99.90
17859;DHT22;35426;30.698;104.050;2022-12-01T05:01:14;7.80;99.90
17859;DHT22;35426;30.698;104.050;2022-12-01T05:03:49;8.10;99.90
17859;DHT22;35426;30.698;104.050;2022-12-01T05:06:25;8.20;99.90
17859;DHT22;35426;30.698;104.050;2022-12-01T05:09:19;8.40;99.90
17859;DHT22;35426;30.698;104.050;2022-12-01T05:11:55;7.90;99.90
17859;DHT22;35426;30.698;104.050;2022-12-01T05:14:30;7.90;99.90
17859;DHT22;35426;30.698;104.050;2022-12-01T05:17:22;7.40;99.90
17859;DHT22;35426;30.698;104.050;2022-12-01T05:20:01;7.30;99.90
17859;DHT22;35426;30.698;104.050;2022-12-01T05:22:56;7.40;99.90
17859;DHT22;35426;30.698;104.050;2022-12-01T05:25:34;7.60;99.90
17859;DHT22;35426;30.698;104.050;2022-12-01T05:28:11;7.80;99.90
17859;DHT22;35426;30.698;104.050;2022-12-01T05:30:45;7.70;99.90
17859;DHT22;35426;30.698;104.050;2022-12-01T05:33:20;7.90;99.90
17859;DHT22;35426;30.698;104.050;2022-12-01T05:35:55;7.60;99.90
17859;DHT22;35426;30.698;104.050;2022-12-01T05:38:31;7.60;99.90
17859;DHT22;35426;30.698;104.050;2022-12-01T05:41:05;7.50;99.90
17859;DHT22;35426;30.698;104.050;2022-12-01T05:43:43;7.40;99.90
17859;DHT22;35426;30.698;104.050;2022-12-01T05:46:17;7.60;99.90
17859;DHT22;35426;30.698;104.050;2022-12-01T05:48:52;7.70;99.90
17859;DHT22;35426;30.698;104.050;2022-12-01T05:51:27;7.60;99.90
17859;DHT22;35426;30.698;104.050;2022-12-01T05:54:02;7.50;99.90
17859;DHT22;35426;30.698;104.050;2022-12-01T05:56:37;7.50;99.90
17859;DHT22;35426;30.698;104.050;2022-12-01T05:59:14;7.20;99.90
17859;DHT22;35426;30.698;104.050;2022-12-01T06:01:54;7.10;99.90
17859;DHT22;35426;30.698;104.050;2022-12-01T06:04:29;7.20;99.90
17859;DHT22;35426;30.698;104.050;2022-12-01T06:07:05;7.30;99.90
17859;DHT22;35426;30.698;104.050;2022-12-01T06:09:40;7.30;99.90
17859;DHT22;35426;30.698;104.050;2022-12-01T06:12:17;7.40;99.90
17859;DHT22;35426;30.698;104.050;2022-12-01T06:14:55;7.50;99.90
17859;DHT22;35426;30.698;104.050;2022-12-01T06:17:33;7.50;99.90
17859;DHT22;35426;30.698;104.050;2022-12-01T06:20:10;7.60;99.90
17859;DHT22;35426;30.698;104.050;2022-12-01T06:22:46;7.50;99.90
17859;DHT22;35426;30.698;104.050;2022-12-01T06:25:21;7.60;99.90
17859;DHT22;35426;30.698;104.050;2022-12-01T06:27:57;7.50;99.90
17859;DHT22;35426;30.698;104.050;2022-12-01T06:30:49;7.20;99.90
17859;DHT22;35426;30.698;104.050;2022-12-01T06:33:32;7.10;99.90
17859;DHT22;35426;30.698;104.050;2022-12-01T06:36:07;7.20;99.90
17859;DHT22;35426;30.698;104.050;2022-12-01T06:38:43;7.50;99.90
17859;DHT22;35426;30.698;104.050;2022-12-01T06:41:17;7.50;99.90
17859;DHT22;35426;30.698;104.050;2022-12-01T06:43:52;7.50;99.90
17859;DHT22;35426;30.698;104.050;2022-12-01T06:46:30;7.40;99.90
17859;DHT22;35426;30.698;104.050;2022-12-01T06:49:08;7.40;99.90
17859;DHT22;35426;30.698;104.050;2022-12-01T06:51:45;7.30;99.90
17859;DHT22;35426;30.698;104.050;2022-12-01T06:54:22;7.30;99.90
17859;DHT22;35426;30.698;104.050;2022-12-01T06:56:56;7.30;99.90
17859;DHT22;35426;30.698;104.050;2022-12-01T06:59:33;7.20;99.90
17859;DHT22;35426;30.698;104.050;2022-12-01T07:02:12;7.20;99.90
17859;DHT22;35426;30.698;104.050;2022-12-01T07:04:47;7.10;99.90
17859;DHT22;35426;30.698;104.050;2022-12-01T07:07:21;7.20;99.90
17859;DHT22;35426;30.698;104.050;2022-12-01T07:09:58;7.30;99.90
17859;DHT22;35426;30.698;104.050;2022-12-01T07:12:33;7.30;99.90
17859;DHT22;35426;30.698;104.050;2022-12-01T07:15:09;7.10;99.90
17859;DHT22;35426;30.698;104.050;2022-12-01T07:17:46;7.10;99.90
17859;DHT22;35426;30.698;104.050;2022-12-01T07:20:20;7.20;99.90
17859;DHT22;35426;30.698;104.050;2022-12-01T07:22:54;7.20;99.90
17859;DHT22;35426;30.698;104.050;2022-12-01T07:25:29;7.20;99.90
17859;DHT22;35426;30.698;104.050;2022-12-01T07:28:06;7.30;99.90
17859;DHT22;35426;30.698;104.050;2022-12-01T07:30:41;7.40;99.90
17859;DHT22;35426;30.698;104.050;2022-12-01T07:33:22;7.40;99.90
17859;DHT22;35426;30.698;104.050;2022-12-01T07:35:58;7.30;99.90
17859;DHT22;35426;30.698;104.050;2022-12-01T07:38:35;7.40;99.90
17859;DHT22;35426;30.698;104.050;2022-12-01T07:41:11;7.30;99.90
17859;DHT22;35426;30.698;104.050;2022-12-01T07:43:47;7.30;99.90
17859;DHT22;35426;30.698;104.050;2022-12-01T07:46:23;7.10;99.90
17859;DHT22;35426;30.698;104.050;2022-12-01T07:49:03;7.40;99.90
17859;DHT22;35426;30.698;104.050;2022-12-01T07:51:39;7.10;99.90
17859;DHT22;35426;30.698;104.050;2022-12-01T07:54:14;7.00;99.90
17859;DHT22;35426;30.698;104.050;2022-12-01T07:56:52;7.10;99.90
17859;DHT22;35426;30.698;104.050;2022-12-01T07:59:30;6.90;99.90
17859;DHT22;35426;30.698;104.050;2022-12-01T08:02:06;7.10;99.90
17859;DHT22;35426;30.698;104.050;2022-12-01T08:04:42;7.20;99.90
17859;DHT22;35426;30.698;104.050;2022-12-01T08:07:19;7.10;99.90
17859;DHT22;35426;30.698;104.050;2022-12-01T08:09:59;7.30;99.90
17859;DHT22;35426;30.698;104.050;2022-12-01T08:12:36;7.40;99.90
17859;DHT22;35426;30.698;104.050;2022-12-01T08:15:13;7.50;99.90
17859;DHT22;35426;30.698;104.050;2022-12-01T08:17:48;7.80;99.90
17859;DHT22;35426;30.698;104.050;2022-12-01T08:20:26;7.50;99.90
17859;DHT22;35426;30.698;104.050;2022-12-01T08:23:04;7.30;99.90
17859;DHT22;35426;30.698;104.050;2022-12-01T08:25:38;6.90;99.90
17859;DHT22;35426;30.698;104.050;2022-12-01T08:28:14;7.10;99.90
17859;DHT22;35426;30.698;104.050;2022-12-01T08:30:49;7.20;99.90
17859;DHT22;35426;30.698;104.050;2022-12-01T08:33:24;7.10;99.90
17859;DHT22;35426;30.698;104.050;2022-12-01T08:36:04;7.40;99.90
17859;DHT22;35426;30.698;104.050;2022-12-01T08:38:42;7.30;99.90
17859;DHT22;35426;30.698;104.050;2022-12-01T08:41:19;7.10;99.90
17859;DHT22;35426;30.698;104.050;2022-12-01T08:43:53;7.20;99.90
17859;DHT22;35426;30.698;104.050;2022-12-01T08:46:34;7.40;99.90
17859;DHT22;35426;30.698;104.050;2022-12-01T08:49:09;7.40;99.90
17859;DHT22;35426;30.698;104.050;2022-12-01T08:51:47;7.20;99.90
17859;DHT22;35426;30.698;104.050;2022-12-01T08:54:21;7.10;99.90
17859;DHT22;35426;30.698;104.050;2022-12-01T08:56:56;7.00;99.90
17859;DHT22;35426;30.698;104.050;2022-12-01T08:59:30;7.10;99.90
17859;DHT22;35426;30.698;104.050;2022-12-01T09:02:05;7.20;99.90
17859;DHT22;35426;30.698;104.050;2022-12-01T09:04:41;7.20;99.90
17859;DHT22;35426;30.698;104.050;2022-12-01T09:07:20;7.10;99.90
17859;DHT22;35426;30.698;104.050;2022-12-01T09:09:56;7.00;99.90
17859;DHT22;35426;30.698;104.050;2022-12-01T09:12:30;7.00;99.90
17859;DHT22;35426;30.698;104.050;2022-12-01T09:15:06;7.00;99.90
17859;DHT22;35426;30.698;104.050;2022-12-01T09:17:44;7.20;99.90
17859;DHT22;35426;30.698;104.050;2022-12-01T09:20:18;7.20;99.90
17859;DHT22;35426;30.698;104.050;2022-12-01T09:22:55;7.40;99.90
17859;DHT22;35426;30.698;104.050;2022-12-01T09:25:34;7.50;99.90
17859;DHT22;35426;30.698;104.050;2022-12-01T09:28:09;7.30;99.90
17859;DHT22;35426;30.698;104.050;2022-12-01T09:30:46;7.10;99.90
17859;DHT22;35426;30.698;104.050;2022-12-01T09:33:22;7.10;99.90
17859;DHT22;35426;30.698;104.050;2022-12-01T09:35:59;7.30;99.90
17859;DHT22;35426;30.698;104.050;2022-12-01T09:38:52;7.50;99.90
17859;DHT22;35426;30.698;104.050;2022-12-01T09:41:30;7.40;99.90
17859;DHT22;35426;30.698;104.050;2022-12-01T09:44:13;7.30;99.90
17859;DHT22;35426;30.698;104.050;2022-12-01T09:46:57;7.30;99.90
17859;DHT22;35426;30.698;104.050;2022-12-01T09:49:43;7.30;99.90
17859;DHT22;35426;30.698;104.050;2022-12-01T09:52:22;7.20;99.90
17859;DHT22;35426;30.698;104.050;2022-12-01T09:55:01;7.10;99.90
17859;DHT22;35426;30.698;104.050;2022-12-01T09:57:36;7.10;99.90
17859;DHT22;35426;30.698;104.050;2022-12-01T10:00:15;7.00;99.90
17859;DHT22;35426;30.698;104.050;2022-12-01T10:02:52;6.90;99.90
17859;DHT22;35426;30.698;104.050;2022-12-01T10:05:37;7.10;99.90
17859;DHT22;35426;30.698;104.050;2022-12-01T10:08:41;7.10;99.90
17859;DHT22;35426;30.698;104.050;2022-12-01T10:11:26;7.00;99.90
17859;DHT22;35426;30.698;104.050;2022-12-01T10:14:05;6.90;99.90
17859;DHT22;35426;30.698;104.050;2022-12-01T10:16:57;7.00;99.90
17859;DHT22;35426;30.698;104.050;2022-12-01T10:19:41;7.10;99.90
17859;DHT22;35426;30.698;104.050;2022-12-01T10:22:51;6.90;99.90
17859;DHT22;35426;30.698;104.050;2022-12-01T10:25:29;7.10;99.90
17859;DHT22;35426;30.698;104.050;2022-12-01T10:28:31;6.90;99.90
17859;DHT22;35426;30.698;104.050;2022-12-01T10:31:18;6.70;99.90
17859;DHT22;35426;30.698;104.050;2022-12-01T10:34:00;6.80;99.90
17859;DHT22;35426;30.698;104.050;2022-12-01T10:36:37;6.70;99.90
17859;DHT22;35426;30.698;104.050;2022-12-01T10:39:17;6.70;99.90
17859;DHT22;35426;30.698;104.050;2022-12-01T10:42:00;6.90;99.90
17859;DHT22;35426;30.698;104.050;2022-12-01T10:44:41;6.90;99.90
17859;DHT22;35426;30.698;104.050;2022-12-01T10:47:19;7.00;99.90
17859;DHT22;35426;30.698;104.050;2022-12-01T10:49:57;7.00;99.90
17859;DHT22;35426;30.698;104.050;2022-12-01T10:52:35;6.80;99.90
17859;DHT22;35426;30.698;104.050;2022-12-01T10:55:26;6.80;99.90
17859;DHT22;35426;30.698;104.050;2022-12-01T10:58:17;6.80;99.90
17859;DHT22;35426;30.698;104.050;2022-12-01T11:00:59;6.80;99.90
17859;DHT22;35426;30.698;104.050;2022-12-01T11:03:36;6.80;99.90
17859;DHT22;35426;30.698;104.050;2022-12-01T11:06:13;6.80;99.90
17859;DHT22;35426;30.698;104.050;2022-12-01T11:08:57;6.80;99.90
17859;DHT22;35426;30.698;104.050;2022-12-01T11:11:35;6.90;99.90
17859;DHT22;35426;30.698;104.050;2022-12-01T11:14:18;6.90;99.90
17859;DHT22;35426;30.698;104.050;2022-12-01T11:16:57;6.90;99.90
17859;DHT22;35426;30.698;104.050;2022-12-01T11:19:49;6.80;99.90
17859;DHT22;35426;30.698;104.050;2022-12-01T11:22:28;6.80;99.90
17859;DHT22;35426;30.698;104.050;2022-12-01T11:25:04;6.70;99.90
17859;DHT22;35426;30.698;104.050;2022-12-01T11:27:48;6.70;99.90
17859;DHT22;35426;30.698;104.050;2022-12-01T11:30:29;6.80;99.90
17859;DHT22;35426;30.698;104.050;2022-12-01T11:33:15;6.80;99.90
17859;DHT22;35426;30.698;104.050;2022-12-01T11:35:50;6.80;99.90
17859;DHT22;35426;30.698;104.050;2022-12-01T11:38:31;6.80;99.90
17859;DHT22;35426;30.698;104.050;2022-12-01T11:41:23;6.70;99.90
17859;DHT22;35426;30.698;104.050;2022-12-01T11:44:00;6.70;99.90
17859;DHT22;35426;30.698;104.050;2022-12-01T11:47:16;6.80;99.90
17859;DHT22;35426;30.698;104.050;2022-12-01T11:49:58;6.90;99.90
17859;DHT22;35426;30.698;104.050;2022-12-01T11:52:44;6.90;99.90
17859;DHT22;35426;30.698;104.050;2022-12-01T11:55:27;7.00;99.90
17859;DHT22;35426;30.698;104.050;2022-12-01T11:58:07;6.80;99.90
17859;DHT22;35426;30.698;104.050;2022-12-01T12:00:59;6.90;99.90
17859;DHT22;35426;30.698;104.050;2022-12-01T12:03:40;6.80;99.90
17859;DHT22;35426;30.698;104.050;2022-12-01T12:06:25;6.80;99.90
17859;DHT22;35426;30.698;104.050;2022-12-01T12:09:24;6.90;99.90
17859;DHT22;35426;30.698;104.050;2022-12-01T12:12:10;6.90;99.90
17859;DHT22;35426;30.698;104.050;2022-12-01T12:14:59;6.90;99.90
17859;DHT22;35426;30.698;104.050;2022-12-01T12:17:51;7.00;99.90
17859;DHT22;35426;30.698;104.050;2022-12-01T12:20:46;7.00;99.90
17859;DHT22;35426;30.698;104.050;2022-12-01T12:24:01;6.80;99.90
17859;DHT22;35426;30.698;104.050;2022-12-01T12:26:41;6.90;99.90
17859;DHT22;35426;30.698;104.050;2022-12-01T12:29:28;7.00;99.90
17859;DHT22;35426;30.698;104.050;2022-12-01T12:32:21;7.00;99.90
17859;DHT22;35426;30.698;104.050;2022-12-01T12:35:06;7.10;99.90
17859;DHT22;35426;30.698;104.050;2022-12-01T12:37:50;7.00;99.90
17859;DHT22;35426;30.698;104.050;2022-12-01T12:40:37;7.10;99.90
17859;DHT22;35426;30.698;104.050;2022-12-01T12:43:22;7.10;99.90
17859;DHT22;35426;30.698;104.050;2022-12-01T12:46:03;7.10;99.90
17859;DHT22;35426;30.698;104.050;2022-12-01T12:48:58;7.10;99.90
17859;DHT22;35426;30.698;104.050;2022-12-01T12:51:57;7.10;99.90
17859;DHT22;35426;30.698;104.050;2022-12-01T12:54:43;7.20;99.90
17859;DHT22;35426;30.698;104.050;2022-12-01T12:57:25;7.20;99.90
17859;DHT22;35426;30.698;104.050;2022-12-01T13:00:07;7.00;99.90
17859;DHT22;35426;30.698;104.050;2022-12-01T13:02:50;7.20;99.90
17859;DHT22;35426;30.698;104.050;2022-12-01T13:05:32;7.40;99.90
17859;DHT22;35426;30.698;104.050;2022-12-01T13:08:13;7.40;99.90
17859;DHT22;35426;30.698;104.050;2022-12-01T13:10:54;7.30;99.90
17859;DHT22;35426;30.698;104.050;2022-12-01T13:13:55;7.40;99.90
17859;DHT22;35426;30.698;104.050;2022-12-01T13:16:34;7.60;99.90
17859;DHT22;35426;30.698;104.050;2022-12-01T13:19:19;7.60;99.90
17859;DHT22;35426;30.698;104.050;2022-12-01T13:21:55;7.50;99.90
17859;DHT22;35426;30.698;104.050;2022-12-01T13:24:37;7.40;99.90
17859;DHT22;35426;30.698;104.050;2022-12-01T13:27:16;7.40;99.90
17859;DHT22;35426;30.698;104.050;2022-12-01T13:29:57;7.70;99.90
17859;DHT22;35426;30.698;104.050;2022-12-01T13:32:37;7.80;99.90
17859;DHT22;35426;30.698;104.050;2022-12-01T13:35:24;7.70;99.90
17859;DHT22;35426;30.698;104.050;2022-12-01T13:38:29;7.40;99.90
17859;DHT22;35426;30.698;104.050;2022-12-01T13:41:25;7.50;99.90
17859;DHT22;35426;30.698;104.050;2022-12-01T13:44:07;7.50;99.90
17859;DHT22;35426;30.698;104.050;2022-12-01T13:47:00;7.50;99.90
17859;DHT22;35426;30.698;104.050;2022-12-01T13:49:42;7.40;99.90
17859;DHT22;35426;30.698;104.050;2022-12-01T13:52:28;7.30;99.90
17859;DHT22;35426;30.698;104.050;2022-12-01T13:55:30;7.50;99.90
17859;DHT22;35426;30.698;104.050;2022-12-01T13:58:39;7.40;99.90
17859;DHT22;35426;30.698;104.050;2022-12-01T14:01:45;7.30;99.90
17859;DHT22;35426;30.698;104.050;2022-12-01T14:04:33;7.40;99.90
17859;DHT22;35426;30.698;104.050;2022-12-01T14:07:32;7.40;99.90
17859;DHT22;35426;30.698;104.050;2022-12-01T14:10:26;7.30;99.90
17859;DHT22;35426;30.698;104.050;2022-12-01T14:13:05;7.30;99.90
17859;DHT22;35426;30.698;104.050;2022-12-01T14:15:49;7.30;99.90
17859;DHT22;35426;30.698;104.050;2022-12-01T14:18:33;7.30;99.90
17859;DHT22;35426;30.698;104.050;2022-12-01T14:21:13;7.30;99.90
17859;DHT22;35426;30.698;104.050;2022-12-01T14:24:14;7.40;99.90
17859;DHT22;35426;30.698;104.050;2022-12-01T14:26:53;7.30;99.90
17859;DHT22;35426;30.698;104.050;2022-12-01T14:29:33;7.30;99.90
17859;DHT22;35426;30.698;104.050;2022-12-01T14:32:24;7.40;99.90
17859;DHT22;35426;30.698;104.050;2022-12-01T14:35:07;7.30;99.90
17859;DHT22;35426;30.698;104.050;2022-12-01T14:37:53;7.20;99.90
17859;DHT22;35426;30.698;104.050;2022-12-01T14:40:30;7.20;99.90
17859;DHT22;35426;30.698;104.050;2022-12-01T14:43:13;7.20;99.90
17859;DHT22;35426;30.698;104.050;2022-12-01T14:46:07;7.40;99.90
17859;DHT22;35426;30.698;104.050;2022-12-01T14:48:47;7.20;99.90
17859;DHT22;35426;30.698;104.050;2022-12-01T14:51:27;7.10;99.90
17859;DHT22;35426;30.698;104.050;2022-12-01T14:54:11;7.40;99.90
17859;DHT22;35426;30.698;104.050;2022-12-01T14:56:52;7.50;99.90
17859;DHT22;35426;30.698;104.050;2022-12-01T14:59:37;7.60;99.90
17859;DHT22;35426;30.698;104.050;2022-12-01T15:02:14;7.60;99.90
17859;DHT22;35426;30.698;104.050;2022-12-01T15:05:06;7.50;99.90
17859;DHT22;35426;30.698;104.050;2022-12-01T15:07:45;7.40;99.90
17859;DHT22;35426;30.698;104.050;2022-12-01T15:10:29;7.30;99.90
17859;DHT22;35426;30.698;104.050;2022-12-01T15:13:18;7.30;99.90
17859;DHT22;35426;30.698;104.050;2022-12-01T15:16:02;7.20;99.90
17859;DHT22;35426;30.698;104.050;2022-12-01T15:18:38;7.20;99.90
17859;DHT22;35426;30.698;104.050;2022-12-01T15:21:14;7.20;99.90
17859;DHT22;35426;30.698;104.050;2022-12-01T15:23:58;7.20;99.90
17859;DHT22;35426;30.698;104.050;2022-12-01T15:26:45;7.30;99.90
17859;DHT22;35426;30.698;104.050;2022-12-01T15:29:24;7.40;99.90
17859;DHT22;35426;30.698;104.050;2022-12-01T15:32:04;7.40;99.90
17859;DHT22;35426;30.698;104.050;2022-12-01T15:34:42;7.40;99.90
17859;DHT22;35426;30.698;104.050;2022-12-01T15:37:20;7.40;99.90
17859;DHT22;35426;30.698;104.050;2022-12-01T15:39:58;7.40;99.90
17859;DHT22;35426;30.698;104.050;2022-12-01T15:43:05;7.40;99.90
17859;DHT22;35426;30.698;104.050;2022-12-01T15:45:54;7.50;99.90
17859;DHT22;35426;30.698;104.050;2022-12-01T15:48:33;7.40;99.90
17859;DHT22;35426;30.698;104.050;2022-12-01T15:51:17;7.40;99.90
17859;DHT22;35426;30.698;104.050;2022-12-01T15:53:56;7.40;99.90
17859;DHT22;35426;30.698;104.050;2022-12-01T15:56:33;7.50;99.90
17859;DHT22;35426;30.698;104.050;2022-12-01T15:59:29;7.40;99.90
17859;DHT22;35426;30.698;104.050;2022-12-01T16:02:21;7.60;99.90
17859;DHT22;35426;30.698;104.050;2022-12-01T16:05:13;7.60;99.90
17859;DHT22;35426;30.698;104.050;2022-12-01T16:07:51;7.40;99.90
17859;DHT22;35426;30.698;104.050;2022-12-01T16:10:44;7.40;99.90
17859;DHT22;35426;30.698;104.050;2022-12-01T16:13:38;7.40;99.90
17859;DHT22;35426;30.698;104.050;2022-12-01T16:16:43;7.40;99.90
17859;DHT22;35426;30.698;104.050;2022-12-01T16:19:30;7.40;99.90
17859;DHT22;35426;30.698;104.050;2022-12-01T16:22:14;7.50;99.90
17859;DHT22;35426;30.698;104.050;2022-12-01T16:24:52;7.40;99.90
17859;DHT22;35426;30.698;104.050;2022-12-01T16:27:28;7.50;99.90
17859;DHT22;35426;30.698;104.050;2022-12-01T16:30:18;7.60;99.90
17859;DHT22;35426;30.698;104.050;2022-12-01T16:33:04;7.50;99.90
17859;DHT22;35426;30.698;104.050;2022-12-01T16:35:40;7.40;99.90
17859;DHT22;35426;30.698;104.050;2022-12-01T16:38:16;7.40;99.90
17859;DHT22;35426;30.698;104.050;2022-12-01T16:40:56;7.30;99.90
17859;DHT22;35426;30.698;104.050;2022-12-01T16:43:33;7.40;99.90